sensor_id;sensor_type;location;lat;lon;timestamp;P1;durP1;ratioP1;P2;durP2;ratioP2
29688;SDS011;16600;47.444;8.334;2023-12-20T04:54:19;12.38;;;11.07;;
29688;SDS011;16600;47.444;8.334;2023-12-20T04:56:45;13.73;;;12.32;;
29688;SDS011;16600;47.444;8.334;2023-12-20T07:13:28;17.13;;;12.50;;
29688;SDS011;16600;47.444;8.334;2023-12-20T07:15:54;15.38;;;13.60;;
29688;SDS011;16600;47.444;8.334;2023-12-20T07:20:45;14.27;;;12.27;;
29688;SDS011;16600;47.444;8.334;2023-12-20T07:25:36;11.88;;;10.55;;
29688;SDS011;16600;47.444;8.334;2023-12-20T07:30:27;12.07;;;10.80;;
29688;SDS011;16600;47.444;8.334;2023-12-20T07:35:18;14.50;;;11.93;;
29688;SDS011;16600;47.444;8.334;2023-12-20T07:40:09;15.63;;;13.25;;
29688;SDS011;16600;47.444;8.334;2023-12-20T07:45:00;16.58;;;12.95;;
29688;SDS011;16600;47.444;8.334;2023-12-20T07:49:52;15.43;;;12.82;;
29688;SDS011;16600;47.444;8.334;2023-12-20T07:54:44;14.02;;;12.65;;
29688;SDS011;16600;47.444;8.334;2023-12-20T07:59:36;16.58;;;14.82;;
29688;SDS011;16600;47.444;8.334;2023-12-20T08:04:27;19.13;;;13.88;;
29688;SDS011;16600;47.444;8.334;2023-12-20T08:09:18;15.85;;;12.55;;
29688;SDS011;16600;47.444;8.334;2023-12-20T08:14:10;13.73;;;12.32;;
29688;SDS011;16600;47.444;8.334;2023-12-20T08:19:01;15.20;;;13.00;;
29688;SDS011;16600;47.444;8.334;2023-12-20T08:23:53;12.68;;;11.38;;
29688;SDS011;16600;47.444;8.334;2023-12-20T08:28:43;13.23;;;11.50;;
29688;SDS011;16600;47.444;8.334;2023-12-20T08:33:34;14.88;;;11.50;;
29688;SDS011;16600;47.444;8.334;2023-12-20T08:38:25;21.38;;;13.10;;
29688;SDS011;16600;47.444;8.334;2023-12-20T08:43:17;17.15;;;13.45;;
29688;SDS011;16600;47.444;8.334;2023-12-20T08:45:43;17.17;;;12.00;;
29688;SDS011;16600;47.444;8.334;2023-12-20T08:50:34;12.82;;;11.52;;
29688;SDS011;16600;47.444;8.334;2023-12-20T08:55:26;16.08;;;13.13;;
29688;SDS011;16600;47.444;8.334;2023-12-20T08:57:53;18.13;;;13.32;;
29688;SDS011;16600;47.444;8.334;2023-12-20T12:12:57;2.58;;;1.50;;
29688;SDS011;16600;47.444;8.334;2023-12-20T12:17:55;1.90;;;1.33;;
29688;SDS011;16600;47.444;8.334;2023-12-20T12:20:21;2.13;;;1.92;;
29688;SDS011;16600;47.444;8.334;2023-12-20T12:23:00;1.83;;;1.38;;
29688;SDS011;16600;47.444;8.334;2023-12-20T12:25:26;2.00;;;1.20;;
29688;SDS011;16600;47.444;8.334;2023-12-20T12:27:52;2.40;;;1.83;;
29688;SDS011;16600;47.444;8.334;2023-12-20T12:32:43;2.63;;;1.30;;
29688;SDS011;16600;47.444;8.334;2023-12-20T12:37:35;2.80;;;1.23;;
29688;SDS011;16600;47.444;8.334;2023-12-20T12:40:03;1.20;;;1.02;;
29688;SDS011;16600;47.444;8.334;2023-12-20T12:42:30;1.02;;;1.02;;
29688;SDS011;16600;47.444;8.334;2023-12-20T12:47:24;1.25;;;1.00;;
29688;SDS011;16600;47.444;8.334;2023-12-20T12:52:15;2.05;;;1.30;;
29688;SDS011;16600;47.444;8.334;2023-12-20T12:57:07;1.52;;;1.30;;
29688;SDS011;16600;47.444;8.334;2023-12-20T14:05:12;2.70;;;1.10;;
29688;SDS011;16600;47.444;8.334;2023-12-20T14:07:43;2.92;;;1.30;;
29688;SDS011;16600;47.444;8.334;2023-12-20T14:10:13;3.67;;;1.35;;
29688;SDS011;16600;47.444;8.334;2023-12-20T14:12:45;2.22;;;1.17;;
29688;SDS011;16600;47.444;8.334;2023-12-20T14:15:12;4.15;;;1.60;;
29688;SDS011;16600;47.444;8.334;2023-12-20T14:17:51;8.10;;;1.48;;
29688;SDS011;16600;47.444;8.334;2023-12-20T14:20:27;4.57;;;1.60;;
29688;SDS011;16600;47.444;8.334;2023-12-20T14:23:00;2.35;;;1.05;;
29688;SDS011;16600;47.444;8.334;2023-12-20T14:25:47;3.28;;;1.70;;
29688;SDS011;16600;47.444;8.334;2023-12-20T14:28:17;3.28;;;1.60;;
29688;SDS011;16600;47.444;8.334;2023-12-20T14:30:43;5.70;;;2.00;;
29688;SDS011;16600;47.444;8.334;2023-12-20T14:35:35;3.95;;;1.65;;
29688;SDS011;16600;47.444;8.334;2023-12-20T14:38:01;3.38;;;1.85;;
29688;SDS011;16600;47.444;8.334;2023-12-20T14:40:27;5.03;;;2.10;;
29688;SDS011;16600;47.444;8.334;2023-12-20T14:42:53;4.43;;;1.45;;
29688;SDS011;16600;47.444;8.334;2023-12-20T14:45:25;3.40;;;1.52;;
29688;SDS011;16600;47.444;8.334;2023-12-20T14:47:51;3.80;;;1.48;;
29688;SDS011;16600;47.444;8.334;2023-12-20T14:50:17;5.07;;;1.52;;
29688;SDS011;16600;47.444;8.334;2023-12-20T14:52:44;5.57;;;1.52;;
29688;SDS011;16600;47.444;8.334;2023-12-20T14:55:11;2.60;;;1.10;;
29688;SDS011;16600;47.444;8.334;2023-12-20T14:57:37;11.02;;;1.48;;
29688;SDS011;16600;47.444;8.334;2023-12-20T19:13:39;14.17;;;9.23;;
29688;SDS011;16600;47.444;8.334;2023-12-20T19:16:06;10.57;;;7.20;;
29688;SDS011;16600;47.444;8.334;2023-12-20T19:18:43;12.52;;;7.07;;
29688;SDS011;16600;47.444;8.334;2023-12-20T19:21:16;11.15;;;5.95;;
29688;SDS011;16600;47.444;8.334;2023-12-20T19:23:48;17.60;;;6.57;;
29688;SDS011;16600;47.444;8.334;2023-12-20T19:26:25;6.65;;;4.70;;
29688;SDS011;16600;47.444;8.334;2023-12-20T19:29:03;12.77;;;6.78;;
29688;SDS011;16600;47.444;8.334;2023-12-20T19:31:35;6.47;;;3.70;;
29688;SDS011;16600;47.444;8.334;2023-12-20T19:34:07;7.38;;;4.03;;
29688;SDS011;16600;47.444;8.334;2023-12-20T19:39:02;9.63;;;5.43;;
29688;SDS011;16600;47.444;8.334;2023-12-20T19:41:27;7.82;;;3.15;;
29688;SDS011;16600;47.444;8.334;2023-12-20T19:46:23;5.05;;;2.97;;
29688;SDS011;16600;47.444;8.334;2023-12-20T19:51:19;3.92;;;2.85;;
29688;SDS011;16600;47.444;8.334;2023-12-20T19:56:10;4.03;;;3.03;;
29688;SDS011;16600;47.444;8.334;2023-12-20T20:01:02;4.32;;;2.90;;
29688;SDS011;16600;47.444;8.334;2023-12-20T20:03:28;9.23;;;2.97;;
29688;SDS011;16600;47.444;8.334;2023-12-20T20:08:19;4.35;;;2.22;;
29688;SDS011;16600;47.444;8.334;2023-12-20T20:13:10;2.95;;;1.70;;
29688;SDS011;16600;47.444;8.334;2023-12-20T20:18:00;8.18;;;2.35;;
29688;SDS011;16600;47.444;8.334;2023-12-20T20:22:51;9.02;;;5.93;;
29688;SDS011;16600;47.444;8.334;2023-12-20T20:27:42;3.25;;;2.35;;
29688;SDS011;16600;47.444;8.334;2023-12-20T20:32:33;7.10;;;3.97;;
29688;SDS011;16600;47.444;8.334;2023-12-20T20:37:24;2.63;;;2.10;;
29688;SDS011;16600;47.444;8.334;2023-12-20T20:42:15;11.60;;;4.22;;
29688;SDS011;16600;47.444;8.334;2023-12-20T20:47:06;5.90;;;2.97;;
29688;SDS011;16600;47.444;8.334;2023-12-20T20:51:56;8.45;;;2.10;;
29688;SDS011;16600;47.444;8.334;2023-12-20T20:56:47;9.90;;;4.53;;
29688;SDS011;16600;47.444;8.334;2023-12-20T23:18:42;2.50;;;1.38;;
29688;SDS011;16600;47.444;8.334;2023-12-20T23:21:07;1.52;;;1.20;;
29688;SDS011;16600;47.444;8.334;2023-12-20T23:25:58;1.90;;;1.10;;
29688;SDS011;16600;47.444;8.334;2023-12-20T23:30:49;3.25;;;1.30;;
29688;SDS011;16600;47.444;8.334;2023-12-20T23:35:40;2.25;;;1.48;;
